Huvudsida
METAR-TAF:

METAR-TAF

Flygplatser :

Harstad-Narviks flygplats. Evenes

Evenes, Norge

latitud: 68-31N, longitud: 016-41E, höjd: 26 m

Aktuellt väderrapport

Denna rapport gjordes för 52 minuter sedan, klockan 09:50 UTC
Vind 3 kt varierande vindriktning
Temperatur -2°C
Fuktighet 69%
Tryck 1020 hPa
Sikt 10 km eller mer
Brutna moln på en höjd av 4500 ft

METAR: ENEV 170950Z VRB03KT 9999 BKN045 M02/M07 Q1020 RMK WIND 1400FT 16009KT

Tid: 11:42 (10:42 UTC)

Väderprognos

Denna rapport gjordes för 2 timmar och 42 minuter sedan, klockan 08:00 UTC
Prognos gäller från 17 kl. 09 UTC till 17 kl. 18 UTC
Vind 5 kt från syd/sydost
Sikt 10 km eller mer
Brutna moln på en höjd av 4500 ft

TAF: ENEV 170800Z 1709/1718 16005KT 9999 BKN045

Aktuella väderrapporter och prognoser från 4000 flygplatser (METAR- och TAF-rapporter).

De tillgängliga stationerna syns som gula och röda prickar på kartan.

För musen över prickarna för att se namnen på stationerna.

Klicka sedan för att få väderrapporter och prognoser.

För att ändra kartan: Klicka på de gröna knapparna med ett svart kors på för att zooma in; den gröna knappen med ett streck på för att zooma ut; eller på de gröna pilarna för angränsande kartor.


METAR-TAF: